Time;durP1;ratioP1;P1;durP2;ratioP2;P2;SDS_P1;SDS_P2;PMS_P1;PMS_P2;Temp;Humidity;BMP_temperature;BMP_pressure;BME280_temperature;BME280_humidity;BME280_pressure;Samples;Min_cycle;Max_cycle;Signal;HPM_P1;HPM_P2
2023/03/29 00:01:50;;;;;;;2.50;2.30;;;;;;;6.18;93.24;101607.00;5022401;28;20056;-72
2023/03/29 00:04:18;;;;;;;2.22;2.05;;;;;;;6.19;93.14;101601.78;5022579;28;20037;-72
2023/03/29 00:06:47;;;;;;;2.42;2.22;;;;;;;6.17;93.12;101603.53;5019355;28;20034;-72
2023/03/29 00:09:13;;;;;;;3.45;2.10;;;;;;;6.18;93.01;101599.19;5029588;28;20303;-72
2023/03/29 00:11:39;;;;;;;1.90;1.75;;;;;;;6.19;93.12;101604.38;5033655;28;20052;-72
2023/03/29 00:14:05;;;;;;;3.63;2.40;;;;;;;6.20;93.10;101589.63;5032650;28;20046;-72
2023/03/29 00:16:30;;;;;;;2.08;1.98;;;;;;;6.21;93.18;101589.63;5031108;28;20033;-72
2023/03/29 00:18:56;;;;;;;2.83;1.95;;;;;;;6.21;93.17;101584.41;5025029;28;20348;-72
2023/03/29 00:21:21;;;;;;;2.33;2.13;;;;;;;6.21;93.30;101584.41;5038451;28;20152;-72
2023/03/29 00:23:46;;;;;;;2.22;2.05;;;;;;;6.22;93.27;101580.06;5023291;28;20229;-72
2023/03/29 00:26:12;;;;;;;2.55;2.20;;;;;;;6.22;93.37;101575.75;5039352;28;20389;-72
2023/03/29 00:28:37;;;;;;;2.45;2.25;;;;;;;6.21;93.38;101575.75;5020525;28;20053;-72
2023/03/29 00:31:08;;;;;;;2.42;2.20;;;;;;;6.21;93.22;101576.63;5039222;28;20037;-72
2023/03/29 00:33:34;;;;;;;4.47;2.70;;;;;;;6.17;91.79;101567.13;5020780;28;20101;-72
2023/03/29 00:36:00;;;;;;;2.65;2.45;;;;;;;6.19;92.25;101569.72;5019070;28;20080;-72
2023/03/29 00:38:26;;;;;;;3.40;2.63;;;;;;;6.19;92.29;101564.53;5033707;28;20060;-72
2023/03/29 00:40:51;;;;;;;2.22;2.03;;;;;;;6.18;92.52;101561.03;5036685;28;20045;-72
2023/03/29 00:43:17;;;;;;;2.95;2.22;;;;;;;6.18;92.11;101560.19;5024207;28;20414;-72
2023/03/29 00:45:42;;;;;;;3.45;3.15;;;;;;;6.17;91.60;101559.31;5027945;28;20132;-72
2023/03/29 00:48:11;;;;;;;4.70;2.92;;;;;;;6.15;91.02;101555.88;5026135;28;20096;-72
2023/03/29 00:50:56;;;;;;;4.20;2.95;;;;;;;6.16;91.30;101557.59;5025329;28;20045;-72
2023/03/29 00:53:42;;;;;;;3.45;2.40;;;;;;;6.17;91.56;101551.53;5025194;28;20037;-72
2023/03/29 00:56:16;;;;;;;4.65;2.95;;;;;;;6.18;91.49;101541.97;5029736;28;20033;-72
2023/03/29 00:58:48;;;;;;;4.82;3.25;;;;;;;6.18;91.72;101549.78;5022662;28;20217;-72
2023/03/29 01:01:19;;;;;;;4.28;3.38;;;;;;;6.17;91.02;101542.84;5038555;28;20037;-72
2023/03/29 01:03:52;;;;;;;2.70;2.50;;;;;;;6.18;90.86;101549.78;5022531;28;20057;-72
2023/03/29 01:06:23;;;;;;;3.47;2.53;;;;;;;6.18;91.18;101542.81;5018143;28;20093;-72
2023/03/29 01:08:57;;;;;;;2.80;2.50;;;;;;;6.19;91.42;101539.34;5032614;28;20112;-72
2023/03/29 01:11:45;;;;;;;4.50;3.15;;;;;;;6.18;90.94;101532.41;5034598;28;20097;-72
2023/03/29 01:14:25;;;;;;;5.13;2.97;;;;;;;6.16;89.25;101536.78;5036083;28;20056;-72
2023/03/29 01:16:52;;;;;;;4.55;3.15;;;;;;;6.17;89.79;101529.84;5030497;28;20288;-72
2023/03/29 01:19:23;;;;;;;2.72;2.53;;;;;;;6.18;90.21;101527.22;5036373;28;20087;-72
2023/03/29 01:21:55;;;;;;;3.25;2.80;;;;;;;6.21;90.67;101529.78;5031455;28;20038;-72
2023/03/29 01:24:46;;;;;;;3.72;2.90;;;;;;;6.23;91.11;101528.03;5036485;28;20037;-72
2023/03/29 01:27:21;;;;;;;2.58;2.38;;;;;;;6.25;91.40;101517.63;5029363;28;20091;-72
2023/03/29 01:30:00;;;;;;;2.63;2.35;;;;;;;6.26;91.65;101509.81;5037775;28;20033;-72
2023/03/29 01:32:44;;;;;;;3.72;2.92;;;;;;;6.27;91.89;101515.84;5028048;28;20050;-72
2023/03/29 01:35:20;;;;;;;2.50;2.30;;;;;;;6.28;92.22;101515.00;5031969;28;20029;-72
2023/03/29 01:38:01;;;;;;;2.58;2.38;;;;;;;6.29;92.43;101509.78;5022987;28;20049;-72
2023/03/29 01:40:27;;;;;;;2.65;2.45;;;;;;;6.30;92.67;101508.88;5023595;28;20055;-72
2023/03/29 01:43:10;;;;;;;3.13;2.83;;;;;;;6.31;92.75;101518.41;5026948;28;20033;-72
2023/03/29 01:45:53;;;;;;;2.72;2.53;;;;;;;6.31;92.81;101510.59;5031962;28;20033;-72
2023/03/29 01:49:21;;;;;;;3.75;2.90;;;;;;;6.31;92.70;101508.00;5023258;28;20041;-72
2023/03/29 01:52:15;;;;;;;2.70;2.50;;;;;;;6.31;92.89;101500.19;4992969;28;20052;-72
2023/03/29 01:54:51;;;;;;;3.22;2.83;;;;;;;6.32;92.85;101501.06;5026411;28;20325;-72
2023/03/29 01:57:18;;;;;;;6.43;3.63;;;;;;;6.32;92.89;101499.31;5031866;28;20352;-72
2023/03/29 01:59:46;;;;;;;3.53;2.88;;;;;;;6.33;92.89;101494.94;5027048;28;20189;-72
2023/03/29 02:02:15;;;;;;;4.47;3.25;;;;;;;6.33;92.99;101498.44;5027523;28;20106;-72
2023/03/29 02:04:48;;;;;;;2.90;2.70;;;;;;;6.33;93.20;101495.84;5030033;28;20038;-72
2023/03/29 02:07:16;;;;;;;4.22;3.30;;;;;;;6.34;93.44;101486.28;5033594;28;20277;-72
2023/03/29 02:09:44;;;;;;;3.90;2.95;;;;;;;6.36;93.47;101494.06;5033043;28;20388;-72
2023/03/29 02:12:11;;;;;;;4.70;3.00;;;;;;;6.37;93.66;101494.06;5018540;28;20102;-72
2023/03/29 02:14:37;;;;;;;3.22;2.92;;;;;;;6.38;93.61;101490.56;5017495;28;20034;-72
2023/03/29 02:17:18;;;;;;;3.13;2.83;;;;;;;6.39;93.84;101483.63;5032885;28;20104;-72
2023/03/29 02:19:50;;;;;;;3.92;3.05;;;;;;;6.38;94.00;101485.34;5037532;28;20105;-72
2023/03/29 02:22:23;;;;;;;2.90;2.70;;;;;;;6.41;94.12;101474.91;5031625;28;20029;-72
2023/03/29 02:24:52;;;;;;;7.28;3.47;;;;;;;6.41;94.19;101466.25;5032678;28;20034;-72
2023/03/29 02:27:18;;;;;;;4.47;3.13;;;;;;;6.40;93.97;101467.97;5032976;28;20053;-72
2023/03/29 02:29:45;;;;;;;4.15;3.42;;;;;;;6.40;93.60;101473.19;5027210;28;20037;-72
2023/03/29 02:32:23;;;;;;;4.05;3.65;;;;;;;6.41;93.81;101458.47;5029144;28;20048;-72
2023/03/29 02:35:05;;;;;;;3.15;2.88;;;;;;;6.41;93.82;101467.13;5029087;28;20029;-72
2023/03/29 02:37:33;;;;;;;3.60;3.28;;;;;;;6.43;93.90;101459.28;5036224;28;20048;-72
2023/03/29 02:39:59;;;;;;;4.28;3.47;;;;;;;6.43;94.09;101461.91;5033040;28;20037;-72
2023/03/29 02:42:26;;;;;;;3.47;3.17;;;;;;;6.44;94.26;101461.00;5025303;28;20160;-72
2023/03/29 02:44:56;;;;;;;3.00;2.80;;;;;;;6.45;94.51;101449.72;5019704;28;20044;-72
2023/03/29 02:47:25;;;;;;;3.65;3.15;;;;;;;6.46;94.46;101443.66;5036987;28;20029;-72
2023/03/29 02:49:51;;;;;;;3.78;3.45;;;;;;;6.46;94.54;101449.69;5020852;28;20021;-72
2023/03/29 02:52:22;;;;;;;3.00;2.75;;;;;;;6.47;94.71;101442.75;5027872;28;20065;-72
2023/03/29 02:54:51;;;;;;;3.78;3.38;;;;;;;6.48;94.87;101447.09;5022460;28;20351;-72
2023/03/29 02:57:20;;;;;;;4.05;3.63;;;;;;;6.48;94.77;101439.28;5035884;28;20347;-72
2023/03/29 02:59:46;;;;;;;3.53;3.22;;;;;;;6.47;94.90;101442.75;5032046;28;20067;-71
2023/03/29 03:02:12;;;;;;;3.90;3.35;;;;;;;6.46;94.98;101435.84;5026708;28;20045;-71
2023/03/29 03:04:37;;;;;;;4.53;3.45;;;;;;;6.48;94.90;101431.47;5026367;28;20095;-71
2023/03/29 03:07:06;;;;;;;5.57;3.53;;;;;;;6.49;95.00;101443.59;5021421;28;20359;-71
2023/03/29 03:09:31;;;;;;;4.07;3.65;;;;;;;6.48;95.15;101437.53;5028452;28;20339;-71
2023/03/29 03:11:57;;;;;;;4.75;3.45;;;;;;;6.49;95.05;101436.66;5032855;28;20065;-71
2023/03/29 03:14:22;;;;;;;4.75;3.95;;;;;;;6.48;94.71;101436.69;5033494;28;20248;-71
2023/03/29 03:16:48;;;;;;;4.43;3.60;;;;;;;6.49;94.82;101435.78;5020417;28;20232;-71
2023/03/29 03:19:14;;;;;;;3.80;3.38;;;;;;;6.50;94.88;101437.50;5025870;28;20045;-71
2023/03/29 03:21:39;;;;;;;3.35;3.13;;;;;;;6.50;94.94;101427.09;5021182;28;20112;-71
2023/03/29 03:24:06;;;;;;;4.15;3.70;;;;;;;6.50;94.71;101433.16;5023288;28;20049;-71
2023/03/29 03:26:32;;;;;;;6.72;3.65;;;;;;;6.50;94.94;101432.31;5025683;28;20042;-71
2023/03/29 03:28:57;;;;;;;4.07;3.78;;;;;;;6.50;94.75;101427.94;5026357;28;20063;-71
2023/03/29 03:31:23;;;;;;;7.05;4.22;;;;;;;6.51;94.72;101423.59;5031532;28;20038;-71
2023/03/29 03:33:48;;;;;;;3.65;3.35;;;;;;;6.51;94.78;101418.41;5022128;28;20291;-71
2023/03/29 03:36:13;;;;;;;3.75;3.40;;;;;;;6.52;94.93;101417.53;5023698;28;20037;-71
2023/03/29 03:38:40;;;;;;;4.00;3.60;;;;;;;6.52;94.94;101420.97;5033593;28;20045;-71
2023/03/29 03:41:06;;;;;;;4.53;3.53;;;;;;;6.53;95.20;101409.69;5031562;28;20037;-71
2023/03/29 03:43:31;;;;;;;5.47;4.15;;;;;;;6.54;95.17;101418.34;5031797;28;20258;-71
2023/03/29 03:45:57;;;;;;;6.63;4.28;;;;;;;6.52;94.71;101418.38;5022274;28;20050;-71
2023/03/29 03:48:23;;;;;;;7.55;4.25;;;;;;;6.51;94.06;101419.28;5031652;28;20049;-71
2023/03/29 03:50:57;;;;;;;5.53;4.15;;;;;;;6.51;94.16;101419.28;5027948;28;20041;-71
2023/03/29 03:53:26;;;;;;;4.65;3.50;;;;;;;6.53;94.45;101411.41;5028616;28;20045;-71
2023/03/29 03:55:53;;;;;;;4.07;3.70;;;;;;;6.54;94.65;101419.22;5035045;28;20264;-71
2023/03/29 03:58:18;;;;;;;6.25;4.03;;;;;;;6.56;94.83;101428.75;5031105;28;20042;-71
2023/03/29 04:00:47;;;;;;;4.88;3.75;;;;;;;6.54;94.96;101432.22;5035701;28;20057;-71
2023/03/29 04:03:12;;;;;;;4.13;3.70;;;;;;;6.56;94.83;101424.41;5035071;28;20041;-71
2023/03/29 04:05:39;;;;;;;4.80;3.55;;;;;;;6.56;94.98;101423.53;5034581;28;20237;-71
2023/03/29 04:08:08;;;;;;;4.40;3.97;;;;;;;6.57;94.97;101413.13;5020705;28;20041;-71
2023/03/29 04:10:33;;;;;;;4.47;4.07;;;;;;;6.59;95.08;101413.09;5024367;28;20052;-71
2023/03/29 04:13:03;;;;;;;4.25;3.72;;;;;;;6.58;95.28;101411.38;5022314;28;20244;-71
2023/03/29 04:15:30;;;;;;;3.67;3.38;;;;;;;6.60;95.32;101404.38;5034553;28;20104;-71
2023/03/29 04:17:56;;;;;;;4.53;3.88;;;;;;;6.60;95.38;101400.03;5024911;28;20044;-71
2023/03/29 04:20:23;;;;;;;4.32;3.92;;;;;;;6.60;95.58;101400.03;5028786;28;20224;-71
2023/03/29 04:22:48;;;;;;;4.63;4.05;;;;;;;6.62;95.72;101395.69;5027297;28;20108;-71
2023/03/29 04:25:14;;;;;;;3.65;3.33;;;;;;;6.62;95.70;101387.00;5030469;28;20389;-71
2023/03/29 04:27:39;;;;;;;4.43;4.03;;;;;;;6.63;95.72;101388.75;5022780;28;20283;-71
2023/03/29 04:30:06;;;;;;;5.10;3.95;;;;;;;6.64;95.86;101387.84;5033891;28;20045;-71
2023/03/29 04:32:32;;;;;;;5.50;4.40;;;;;;;6.64;95.98;101383.50;5030218;28;20113;-71
2023/03/29 04:34:57;;;;;;;4.72;3.55;;;;;;;6.63;96.10;101379.19;5022269;28;20041;-71
2023/03/29 04:37:23;;;;;;;4.07;3.67;;;;;;;6.63;96.49;101381.78;5035135;28;20045;-71
2023/03/29 04:39:49;;;;;;;3.97;3.55;;;;;;;6.64;96.15;101386.13;5031452;28;20044;-71
2023/03/29 04:42:14;;;;;;;5.55;4.07;;;;;;;6.65;96.18;101382.63;5027864;28;20099;-71
2023/03/29 04:44:41;;;;;;;4.47;4.13;;;;;;;6.66;96.41;101383.50;5020754;28;20060;-71
2023/03/29 04:47:07;;;;;;;4.20;3.88;;;;;;;6.66;96.44;101373.94;5028981;28;20065;-71
2023/03/29 04:49:32;;;;;;;6.28;4.03;;;;;;;6.66;96.44;101373.94;5027345;28;20041;-71
2023/03/29 04:51:59;;;;;;;5.07;4.30;;;;;;;6.67;96.49;101374.78;5024830;28;20045;-71
2023/03/29 04:54:25;;;;;;;7.35;4.53;;;;;;;6.67;96.43;101375.63;5034310;28;20041;-71
2023/03/29 04:56:51;;;;;;;5.72;4.97;;;;;;;6.66;96.61;101375.69;5016064;28;20099;-71
2023/03/29 04:59:17;;;;;;;7.43;4.65;;;;;;;6.67;96.34;101382.59;5025100;28;20033;-71
2023/03/29 05:01:42;;;;;;;5.47;4.97;;;;;;;6.67;96.61;101380.84;5020302;28;20228;-71
2023/03/29 05:04:08;;;;;;;8.38;4.30;;;;;;;6.66;96.38;101389.56;5032826;28;20087;-71
2023/03/29 05:06:34;;;;;;;4.93;4.50;;;;;;;6.66;95.92;101388.69;5024544;28;20038;-71
2023/03/29 05:09:00;;;;;;;6.22;4.90;;;;;;;6.64;95.75;101383.50;5024717;28;20104;-71
2023/03/29 05:11:26;;;;;;;9.48;5.35;;;;;;;6.66;95.95;101384.34;5026346;28;20053;-71
2023/03/29 05:13:51;;;;;;;9.35;5.10;;;;;;;6.66;96.01;101394.75;5024460;28;20087;-71
2023/03/29 05:16:18;;;;;;;7.40;4.97;;;;;;;6.65;95.70;101393.03;5029656;28;20041;-71
2023/03/29 05:18:43;;;;;;;5.85;4.85;;;;;;;6.66;95.49;101405.16;5019851;28;20072;-71
2023/03/29 05:21:08;;;;;;;8.73;5.43;;;;;;;6.66;95.65;101392.16;5027189;28;20049;-71
2023/03/29 05:23:34;;;;;;;9.10;5.18;;;;;;;6.67;95.73;101399.06;5032219;28;20045;-71
2023/03/29 05:26:00;;;;;;;5.00;4.50;;;;;;;6.70;95.81;101400.78;5031185;28;20064;-71
2023/03/29 05:28:26;;;;;;;9.93;5.28;;;;;;;6.69;95.96;101393.84;5022638;28;20053;-71
2023/03/29 05:31:03;;;;;;;5.65;5.05;;;;;;;6.70;96.06;101395.56;5021462;28;20381;-71
2023/03/29 05:33:29;;;;;;;9.63;5.57;;;;;;;6.70;96.09;101391.22;5029798;28;20037;-71
2023/03/29 05:36:15;;;;;;;10.05;5.38;;;;;;;6.70;95.96;101393.81;5032950;28;20030;-71
2023/03/29 05:38:43;;;;;;;7.22;5.07;;;;;;;6.71;95.93;101385.13;5025523;28;20045;-71
2023/03/29 05:41:09;;;;;;;5.32;4.82;;;;;;;6.72;95.92;101386.00;5031590;28;20037;-71
2023/03/29 05:43:35;;;;;;;6.30;4.80;;;;;;;6.72;96.14;101388.59;5033856;28;20049;-71
2023/03/29 05:46:00;;;;;;;5.53;4.55;;;;;;;6.74;96.30;101392.03;5026392;28;20254;-71
2023/03/29 05:48:26;;;;;;;8.70;5.10;;;;;;;6.75;96.27;101398.09;5023120;28;20045;-71
2023/03/29 05:50:54;;;;;;;4.90;4.50;;;;;;;6.78;96.40;101400.66;5028517;28;20033;-71
2023/03/29 05:53:21;;;;;;;6.10;4.80;;;;;;;6.77;96.64;101398.91;5032506;28;20041;-71
2023/03/29 05:55:47;;;;;;;5.78;5.05;;;;;;;6.78;96.64;101400.66;5024755;28;20410;-71
2023/03/29 05:58:14;;;;;;;5.63;5.13;;;;;;;6.79;96.87;101403.22;5018879;28;20151;-71
2023/03/29 06:00:40;;;;;;;5.22;4.65;;;;;;;6.80;96.82;101398.88;5027447;28;20044;-71
2023/03/29 06:03:06;;;;;;;6.13;4.65;;;;;;;6.81;96.90;101396.25;5033188;28;20037;-71
2023/03/29 06:05:33;;;;;;;5.47;4.90;;;;;;;6.82;96.91;101391.91;5030290;28;20261;-71
2023/03/29 06:08:00;;;;;;;8.77;5.47;;;;;;;6.81;97.02;101393.66;5025797;28;20063;-71
2023/03/29 06:10:26;;;;;;;8.90;4.95;;;;;;;6.83;97.26;101391.03;5020201;28;20047;-71
2023/03/29 06:12:51;;;;;;;9.52;5.10;;;;;;;6.83;97.41;101394.47;5028607;28;20104;-71
2023/03/29 06:15:17;;;;;;;5.55;4.97;;;;;;;6.83;97.42;101393.63;5021444;28;20348;-71
2023/03/29 06:17:46;;;;;;;7.10;5.40;;;;;;;6.84;97.52;101395.34;5018979;28;20054;-71
2023/03/29 06:20:12;;;;;;;8.07;5.40;;;;;;;6.84;97.68;101388.41;5035365;28;20340;-71
2023/03/29 06:22:39;;;;;;;12.45;6.15;;;;;;;6.86;97.77;101381.41;5032048;28;20041;-71
2023/03/29 06:25:05;;;;;;;11.95;6.03;;;;;;;6.87;97.87;101383.13;5029878;28;20197;-71
2023/03/29 06:27:31;;;;;;;8.85;5.93;;;;;;;6.87;97.90;101387.47;5031227;28;20079;-71
2023/03/29 06:30:00;;;;;;;7.32;5.32;;;;;;;6.88;97.91;101391.81;5023862;28;20041;-71
2023/03/29 06:32:26;;;;;;;5.97;5.38;;;;;;;6.89;98.07;101393.53;5030530;28;20386;-71
2023/03/29 06:34:53;;;;;;;8.82;5.88;;;;;;;6.91;98.14;101391.75;5023768;28;20049;-71
2023/03/29 06:37:18;;;;;;;11.00;6.53;;;;;;;6.92;97.92;101396.94;5019502;28;20056;-71
2023/03/29 06:39:43;;;;;;;7.60;5.88;;;;;;;6.94;98.04;101403.88;5032442;28;20093;-71
2023/03/29 06:42:09;;;;;;;11.27;6.30;;;;;;;6.95;98.04;101397.75;5022347;28;20555;-71
2023/03/29 06:44:35;;;;;;;12.20;6.47;;;;;;;6.96;98.16;101396.88;5024485;28;20079;-71
2023/03/29 06:47:00;;;;;;;8.82;6.50;;;;;;;6.97;98.29;101395.97;5019915;28;20069;-71
2023/03/29 06:49:26;;;;;;;9.35;6.05;;;;;;;6.99;98.29;101396.84;5025346;28;20034;-71
2023/03/29 06:51:53;;;;;;;7.78;5.90;;;;;;;7.01;98.31;101402.88;5016960;28;20435;-71
2023/03/29 06:54:19;;;;;;;11.50;6.15;;;;;;;7.03;98.41;101411.53;5014232;28;20105;-71
2023/03/29 06:56:47;;;;;;;10.32;7.18;;;;;;;7.02;98.39;101415.00;5016151;28;20042;-71
2023/03/29 06:59:12;;;;;;;10.93;6.07;;;;;;;7.02;98.52;101408.06;5010268;28;20046;-71
2023/03/29 07:01:38;;;;;;;10.60;5.78;;;;;;;7.04;98.46;101416.72;5015425;28;20228;-71
2023/03/29 07:04:07;;;;;;;9.90;6.63;;;;;;;7.06;98.53;101416.69;5023011;28;20104;-71
2023/03/29 07:06:33;;;;;;;13.60;6.75;;;;;;;7.05;98.57;101426.22;5026173;28;20335;-71
2023/03/29 07:09:00;;;;;;;13.32;6.75;;;;;;;7.07;98.49;101416.66;5018204;28;20061;-71
2023/03/29 07:11:26;;;;;;;9.15;6.20;;;;;;;7.08;98.85;101423.59;5025021;28;20366;-71
2023/03/29 07:13:51;;;;;;;13.63;6.95;;;;;;;7.11;98.85;101431.34;5019678;28;20109;-71
2023/03/29 07:16:18;;;;;;;15.63;7.55;;;;;;;7.14;99.02;101425.22;5021805;28;20225;-71
2023/03/29 07:18:43;;;;;;;8.27;6.97;;;;;;;7.16;99.32;101426.06;5013854;28;20303;-71
2023/03/29 07:21:11;;;;;;;10.27;6.97;;;;;;;7.17;99.25;101422.56;5025923;28;20030;-71
2023/03/29 07:23:36;;;;;;;13.57;7.15;;;;;;;7.20;99.50;101434.69;5025396;28;20224;-71
2023/03/29 07:26:04;;;;;;;13.35;7.30;;;;;;;7.21;99.71;101432.06;5029786;28;20048;-71
2023/03/29 07:28:30;;;;;;;9.75;6.18;;;;;;;7.25;99.97;101432.84;5023310;28;20328;-71
2023/03/29 07:31:10;;;;;;;10.80;6.88;;;;;;;7.27;100.00;101431.94;5029758;28;20037;-71
2023/03/29 07:33:36;;;;;;;13.75;6.75;;;;;;;7.30;100.00;101428.44;5027397;28;20029;-71
2023/03/29 07:36:03;;;;;;;11.80;7.13;;;;;;;7.30;100.00;101424.06;5020402;28;20034;-71
2023/03/29 07:38:30;;;;;;;7.28;6.47;;;;;;;7.34;100.00;101424.88;5022384;28;20037;-71
2023/03/29 07:40:56;;;;;;;12.15;7.30;;;;;;;7.36;100.00;101422.25;5024951;28;20040;-71
2023/03/29 07:43:22;;;;;;;11.43;7.63;;;;;;;7.39;100.00;101422.19;5025267;28;20083;-71
2023/03/29 07:45:49;;;;;;;16.35;8.23;;;;;;;7.41;100.00;101426.50;5027427;28;20324;-71
2023/03/29 07:48:16;;;;;;;18.45;8.40;;;;;;;7.45;100.00;101424.69;5023345;28;20038;-71
2023/03/29 07:50:42;;;;;;;10.38;7.82;;;;;;;7.49;100.00;101434.16;5022879;28;20038;-71
2023/03/29 07:53:07;;;;;;;16.13;8.55;;;;;;;7.53;100.00;101422.81;5021612;28;20034;-71
2023/03/29 07:55:33;;;;;;;13.43;8.30;;;;;;;7.58;100.00;101430.53;5019918;28;20293;-71
2023/03/29 07:57:58;;;;;;;12.13;8.40;;;;;;;7.60;100.00;101427.00;5024593;28;20033;-71
2023/03/29 08:00:24;;;;;;;16.63;8.02;;;;;;;7.65;100.00;101426.91;5019305;28;20038;-71
2023/03/29 08:02:51;;;;;;;16.95;8.32;;;;;;;7.66;100.00;101421.69;5013603;28;20061;-71
2023/03/29 08:05:18;;;;;;;18.23;8.55;;;;;;;7.71;100.00;101428.53;5019862;28;20025;-71
2023/03/29 08:07:44;;;;;;;12.95;8.35;;;;;;;7.73;100.00;101432.88;5026830;28;20026;-71
2023/03/29 08:10:16;;;;;;;16.13;8.93;;;;;;;7.75;100.00;101425.88;5022870;28;20057;-71
2023/03/29 08:12:42;;;;;;;16.27;9.38;;;;;;;7.77;100.00;101426.69;5025172;28;20046;-71
2023/03/29 08:15:09;;;;;;;15.65;9.57;;;;;;;7.79;100.00;101419.69;5022942;28;20041;-71
2023/03/29 08:17:36;;;;;;;15.25;9.55;;;;;;;7.82;100.00;101405.72;5022440;28;20030;-71
2023/03/29 08:20:06;;;;;;;19.42;9.50;;;;;;;7.85;100.00;101411.72;5025418;28;20034;-71
2023/03/29 08:22:32;;;;;;;23.23;10.70;;;;;;;7.90;100.00;101411.66;5023446;28;20033;-71
2023/03/29 08:24:58;;;;;;;21.88;10.68;;;;;;;7.94;100.00;101407.22;5023641;28;20352;-71
2023/03/29 08:27:24;;;;;;;22.88;11.70;;;;;;;7.97;100.00;101412.41;5017423;28;20075;-71
2023/03/29 08:29:49;;;;;;;23.75;11.80;;;;;;;7.99;100.00;101406.25;5020851;28;20049;-71
2023/03/29 08:32:15;;;;;;;23.02;11.48;;;;;;;8.04;100.00;101412.22;5019565;28;20045;-71
2023/03/29 08:34:40;;;;;;;23.80;12.18;;;;;;;8.08;100.00;101415.63;5017328;28;20079;-71
2023/03/29 08:37:05;;;;;;;28.08;12.50;;;;;;;8.13;100.00;101405.09;5033086;28;20076;-71
2023/03/29 08:39:31;;;;;;;30.05;12.93;;;;;;;8.16;100.00;101405.03;5019781;28;20096;-71
2023/03/29 08:41:59;;;;;;;24.02;12.95;;;;;;;8.22;100.00;101412.72;5033781;28;20052;-71
2023/03/29 08:44:47;;;;;;;30.02;12.70;;;;;;;8.28;100.00;101412.59;5028949;28;20332;-71
2023/03/29 08:47:44;;;;;;;27.80;13.15;;;;;;;8.31;100.00;101412.50;5031818;28;20383;-71
2023/03/29 08:50:12;;;;;;;31.05;14.27;;;;;;;8.34;100.00;101420.28;4945510;28;20055;-71
2023/03/29 08:52:44;;;;;;;25.40;12.48;;;;;;;8.37;100.00;101409.78;5026823;28;20036;-71
2023/03/29 08:55:37;;;;;;;26.83;12.25;;;;;;;8.39;100.00;101402.78;5022914;28;20037;-71
2023/03/29 08:58:06;;;;;;;27.92;13.07;;;;;;;8.43;100.00;101403.59;5015748;28;20340;-71
2023/03/29 09:00:49;;;;;;;28.02;12.77;;;;;;;8.44;100.00;101403.56;5030974;28;20064;-71
2023/03/29 09:03:25;;;;;;;28.65;13.40;;;;;;;8.49;100.00;101413.03;5027141;28;20049;-71
2023/03/29 09:05:56;;;;;;;23.63;12.55;;;;;;;8.50;100.00;101405.16;5018375;28;20067;-71
2023/03/29 09:08:23;;;;;;;21.00;11.85;;;;;;;8.51;100.00;101404.25;5017419;28;20042;-71
2023/03/29 09:11:08;;;;;;;26.95;11.88;;;;;;;8.54;100.00;101393.75;5025539;28;20328;-71
2023/03/29 09:14:21;;;;;;;16.25;10.95;;;;;;;8.57;100.00;101404.13;5010953;28;20038;-71
2023/03/29 09:16:47;;;;;;;21.90;12.73;;;;;;;8.60;100.00;101405.81;4997638;28;20046;-71
2023/03/29 09:19:26;;;;;;;26.13;11.82;;;;;;;8.61;100.00;101407.53;5017180;28;20387;-71
2023/03/29 09:22:27;;;;;;;18.67;12.18;;;;;;;8.63;100.00;101409.19;5031666;28;20045;-71
2023/03/29 09:24:58;;;;;;;22.60;13.13;;;;;;;8.64;100.00;101407.44;5019374;28;20033;-71
2023/03/29 09:27:44;;;;;;;19.77;13.18;;;;;;;8.67;100.00;101414.38;5027434;28;20350;-71
2023/03/29 09:30:49;;;;;;;20.85;12.23;;;;;;;8.70;100.00;101406.47;5018121;28;20037;-71
2023/03/29 09:33:28;;;;;;;27.02;13.35;;;;;;;8.72;100.00;101407.28;5005512;28;20033;-71
2023/03/29 09:36:10;;;;;;;24.10;13.98;;;;;;;8.73;100.00;101414.22;5018503;28;20285;-71
2023/03/29 09:38:41;;;;;;;23.65;13.57;;;;;;;8.76;100.00;101414.16;5021275;28;20045;-71
2023/03/29 09:41:25;;;;;;;25.58;13.98;;;;;;;8.78;100.00;101426.25;5022898;28;20036;-71
2023/03/29 09:43:53;;;;;;;21.30;13.30;;;;;;;8.79;100.00;101427.13;5016312;28;20054;-71
2023/03/29 09:46:33;;;;;;;19.30;11.93;;;;;;;8.81;100.00;101428.81;5017638;28;20054;-71
2023/03/29 09:49:00;;;;;;;17.50;12.18;;;;;;;8.81;100.00;101423.59;5019859;28;20261;-71
2023/03/29 09:51:28;;;;;;;16.00;11.98;;;;;;;8.84;100.00;101417.41;5021279;28;20044;-71
2023/03/29 09:53:55;;;;;;;15.07;11.67;;;;;;;8.85;100.00;101416.53;5028016;28;20296;-71
2023/03/29 09:56:21;;;;;;;19.13;12.23;;;;;;;8.86;100.00;101417.38;5027329;28;20041;-71
2023/03/29 09:58:46;;;;;;;22.02;13.77;;;;;;;8.87;100.00;101419.97;5028185;28;20065;-71
2023/03/29 10:01:16;;;;;;;18.10;13.45;;;;;;;8.90;100.00;101419.03;5025710;28;20044;-71
2023/03/29 10:03:47;;;;;;;17.35;13.18;;;;;;;8.90;100.00;101412.06;5025556;28;20109;-71
2023/03/29 10:06:13;;;;;;;20.17;14.25;;;;;;;8.91;100.00;101418.13;5028483;28;20336;-71
2023/03/29 10:08:43;;;;;;;20.85;14.55;;;;;;;8.94;100.00;101408.47;5027415;28;20052;-71
2023/03/29 10:11:19;;;;;;;20.05;12.90;;;;;;;8.94;100.00;101413.69;5027893;28;20041;-71
2023/03/29 10:13:50;;;;;;;24.02;13.10;;;;;;;8.96;100.00;101408.44;5022946;28;20045;-71
2023/03/29 10:16:22;;;;;;;22.60;12.60;;;;;;;8.96;100.00;101409.28;5014350;28;20033;-71
2023/03/29 10:18:49;;;;;;;18.05;12.45;;;;;;;8.98;100.00;101407.50;5014199;28;20021;-71
2023/03/29 10:21:15;;;;;;;14.30;11.77;;;;;;;9.01;100.00;101412.66;5011425;28;20052;-71
2023/03/29 10:23:41;;;;;;;14.25;12.45;;;;;;;9.01;100.00;101399.59;5016244;28;20042;-71
2023/03/29 10:26:27;;;;;;;18.45;13.45;;;;;;;9.04;100.00;101406.50;5026154;28;20052;-71
2023/03/29 10:28:55;;;;;;;16.33;12.98;;;;;;;9.05;100.00;101391.69;5029593;28;20021;-71
2023/03/29 10:31:23;;;;;;;21.00;13.18;;;;;;;9.06;100.00;101385.53;5016161;28;20046;-71
2023/03/29 10:33:55;;;;;;;17.23;12.50;;;;;;;9.08;100.00;101383.75;5025266;28;20537;-71
2023/03/29 10:36:22;;;;;;;18.40;13.02;;;;;;;9.09;100.00;101381.09;5031276;28;20045;-71
2023/03/29 10:38:49;;;;;;;21.75;12.63;;;;;;;9.11;100.00;101370.59;5037764;28;20037;-71
2023/03/29 10:41:16;;;;;;;19.20;12.57;;;;;;;9.13;100.00;101360.97;5022758;28;20204;-71
2023/03/29 10:43:48;;;;;;;20.38;12.65;;;;;;;9.16;100.00;101359.13;5019468;28;20030;-71
2023/03/29 10:46:24;;;;;;;19.88;13.20;;;;;;;9.20;100.00;101354.69;5019975;28;20033;-71
2023/03/29 10:48:54;;;;;;;20.92;12.77;;;;;;;9.25;100.00;101351.97;5020496;28;20084;-71
2023/03/29 10:51:20;;;;;;;18.73;13.15;;;;;;;9.27;100.00;101350.16;5020895;28;20240;-71
2023/03/29 10:53:46;;;;;;;24.75;13.15;;;;;;;9.31;100.00;101341.31;5018793;28;20116;-71
2023/03/29 10:56:39;;;;;;;25.20;13.93;;;;;;;9.35;100.00;101337.72;5019929;28;20046;-71
2023/03/29 10:59:04;;;;;;;19.88;13.50;;;;;;;9.38;100.00;101350.72;5019244;28;20033;-71
2023/03/29 11:02:00;;;;;;;20.52;12.90;;;;;;;9.43;100.00;101361.06;5019734;28;20049;-71
2023/03/29 11:04:32;;;;;;;18.45;12.90;;;;;;;9.47;100.00;101352.22;5019159;28;20239;-71
2023/03/29 11:07:12;;;;;;;23.52;13.80;;;;;;;9.52;100.00;101358.19;5019914;28;20042;-71
2023/03/29 11:09:50;;;;;;;19.13;12.57;;;;;;;9.55;100.00;101361.56;5019831;28;20050;-71
2023/03/29 11:12:45;;;;;;;21.63;12.73;;;;;;;9.58;100.00;101364.09;5020682;28;20065;-71
2023/03/29 11:15:17;;;;;;;20.67;12.43;;;;;;;9.60;100.00;101369.28;5011697;28;20065;-71
2023/03/29 11:18:09;;;;;;;16.50;12.35;;;;;;;9.62;100.00;101375.31;5018413;28;20037;-71
2023/03/29 11:20:42;;;;;;;19.00;12.45;;;;;;;9.61;100.00;101381.47;5029433;28;20044;-71
2023/03/29 11:23:26;;;;;;;18.10;11.88;;;;;;;9.60;100.00;101377.13;5030520;28;20069;-71
2023/03/29 11:26:05;;;;;;;18.45;12.00;;;;;;;9.58;100.00;101398.06;5018570;28;20038;-71
2023/03/29 11:28:37;;;;;;;;;;;;;;;9.57;100.00;101401.59;5018345;28;20259;-71
2023/03/29 11:31:12;;;;;;;23.35;12.75;;;;;;;9.54;100.00;101390.38;5016935;28;19913;-71
2023/03/29 11:33:55;;;;;;;18.88;13.18;;;;;;;9.51;100.00;101386.06;5018498;28;20344;-71
2023/03/29 11:36:36;;;;;;;22.33;13.20;;;;;;;9.50;100.00;101386.13;5018637;28;20037;-71
2023/03/29 11:39:14;;;;;;;22.17;13.00;;;;;;;9.47;100.00;101381.84;5018620;28;20036;-71